sensor_id;sensor_type;location;lat;lon;timestamp;P1;durP1;ratioP1;P2;durP2;ratioP2
38379;SDS011;38377;47.418;18.882;2023-10-19T00:00:47;16.35;;;10.88;;
38379;SDS011;38377;47.418;18.882;2023-10-19T00:03:15;15.75;;;9.85;;
38379;SDS011;38377;47.418;18.882;2023-10-19T00:05:43;14.45;;;10.85;;
38379;SDS011;38377;47.418;18.882;2023-10-19T00:08:12;14.73;;;9.95;;
38379;SDS011;38377;47.418;18.882;2023-10-19T00:10:38;14.27;;;10.75;;
38379;SDS011;38377;47.418;18.882;2023-10-19T00:13:04;14.35;;;11.43;;
38379;SDS011;38377;47.418;18.882;2023-10-19T00:15:37;16.27;;;11.27;;
38379;SDS011;38377;47.418;18.882;2023-10-19T00:18:27;18.98;;;11.40;;
38379;SDS011;38377;47.418;18.882;2023-10-19T00:20:57;19.70;;;12.23;;
38379;SDS011;38377;47.418;18.882;2023-10-19T00:23:36;15.55;;;11.10;;
38379;SDS011;38377;47.418;18.882;2023-10-19T00:26:04;16.67;;;12.52;;
38379;SDS011;38377;47.418;18.882;2023-10-19T00:28:35;13.43;;;9.63;;
38379;SDS011;38377;47.418;18.882;2023-10-19T00:31:01;17.48;;;12.63;;
38379;SDS011;38377;47.418;18.882;2023-10-19T00:33:33;16.20;;;11.40;;
38379;SDS011;38377;47.418;18.882;2023-10-19T00:36:05;16.17;;;11.30;;
38379;SDS011;38377;47.418;18.882;2023-10-19T00:38:33;16.23;;;12.13;;
38379;SDS011;38377;47.418;18.882;2023-10-19T00:41:02;19.33;;;12.35;;
38379;SDS011;38377;47.418;18.882;2023-10-19T00:43:33;16.83;;;12.52;;
38379;SDS011;38377;47.418;18.882;2023-10-19T00:46:01;18.98;;;12.35;;
38379;SDS011;38377;47.418;18.882;2023-10-19T00:48:35;19.75;;;13.10;;
38379;SDS011;38377;47.418;18.882;2023-10-19T00:51:02;20.33;;;13.98;;
38379;SDS011;38377;47.418;18.882;2023-10-19T00:53:38;18.92;;;13.80;;
38379;SDS011;38377;47.418;18.882;2023-10-19T00:56:05;26.10;;;14.63;;
38379;SDS011;38377;47.418;18.882;2023-10-19T00:58:37;23.00;;;16.15;;
38379;SDS011;38377;47.418;18.882;2023-10-19T01:01:06;24.02;;;16.77;;
38379;SDS011;38377;47.418;18.882;2023-10-19T01:03:32;26.88;;;19.30;;
38379;SDS011;38377;47.418;18.882;2023-10-19T01:06:02;26.73;;;19.13;;
38379;SDS011;38377;47.418;18.882;2023-10-19T01:08:36;28.42;;;20.90;;
38379;SDS011;38377;47.418;18.882;2023-10-19T01:11:07;30.55;;;22.00;;
38379;SDS011;38377;47.418;18.882;2023-10-19T01:13:36;28.25;;;20.58;;
38379;SDS011;38377;47.418;18.882;2023-10-19T01:16:16;28.15;;;21.80;;
38379;SDS011;38377;47.418;18.882;2023-10-19T01:18:49;29.55;;;22.60;;
38379;SDS011;38377;47.418;18.882;2023-10-19T01:21:19;28.63;;;22.05;;
38379;SDS011;38377;47.418;18.882;2023-10-19T01:24:01;33.60;;;23.55;;
38379;SDS011;38377;47.418;18.882;2023-10-19T01:26:30;31.75;;;23.05;;
38379;SDS011;38377;47.418;18.882;2023-10-19T01:28:57;28.92;;;22.23;;
38379;SDS011;38377;47.418;18.882;2023-10-19T01:31:45;31.70;;;23.67;;
38379;SDS011;38377;47.418;18.882;2023-10-19T01:34:37;36.03;;;24.15;;
38379;SDS011;38377;47.418;18.882;2023-10-19T01:37:03;36.00;;;25.70;;
38379;SDS011;38377;47.418;18.882;2023-10-19T01:39:32;36.78;;;27.13;;
38379;SDS011;38377;47.418;18.882;2023-10-19T01:42:04;35.13;;;25.92;;
38379;SDS011;38377;47.418;18.882;2023-10-19T01:44:30;39.45;;;28.25;;
38379;SDS011;38377;47.418;18.882;2023-10-19T01:46:56;38.85;;;27.25;;
38379;SDS011;38377;47.418;18.882;2023-10-19T01:49:22;42.60;;;29.13;;
38379;SDS011;38377;47.418;18.882;2023-10-19T01:51:51;40.88;;;28.63;;
38379;SDS011;38377;47.418;18.882;2023-10-19T01:54:19;40.65;;;30.13;;
38379;SDS011;38377;47.418;18.882;2023-10-19T01:56:53;40.45;;;29.55;;
38379;SDS011;38377;47.418;18.882;2023-10-19T01:59:22;43.60;;;31.50;;
38379;SDS011;38377;47.418;18.882;2023-10-19T02:01:49;38.90;;;29.73;;
38379;SDS011;38377;47.418;18.882;2023-10-19T02:04:16;40.95;;;31.48;;
38379;SDS011;38377;47.418;18.882;2023-10-19T02:06:42;46.45;;;32.60;;
38379;SDS011;38377;47.418;18.882;2023-10-19T02:09:11;43.72;;;32.03;;
38379;SDS011;38377;47.418;18.882;2023-10-19T02:11:55;45.50;;;32.50;;
38379;SDS011;38377;47.418;18.882;2023-10-19T02:14:22;47.05;;;33.63;;
38379;SDS011;38377;47.418;18.882;2023-10-19T02:16:53;47.70;;;34.35;;
38379;SDS011;38377;47.418;18.882;2023-10-19T02:19:25;49.28;;;34.75;;
38379;SDS011;38377;47.418;18.882;2023-10-19T02:21:52;48.83;;;34.60;;
38379;SDS011;38377;47.418;18.882;2023-10-19T02:24:24;50.92;;;35.20;;
38379;SDS011;38377;47.418;18.882;2023-10-19T02:26:52;51.17;;;36.20;;
38379;SDS011;38377;47.418;18.882;2023-10-19T02:29:22;53.80;;;37.35;;
38379;SDS011;38377;47.418;18.882;2023-10-19T02:31:48;54.50;;;37.72;;
38379;SDS011;38377;47.418;18.882;2023-10-19T02:34:18;54.63;;;38.08;;
38379;SDS011;38377;47.418;18.882;2023-10-19T02:36:44;52.92;;;38.83;;
38379;SDS011;38377;47.418;18.882;2023-10-19T02:39:20;57.22;;;38.97;;
38379;SDS011;38377;47.418;18.882;2023-10-19T02:41:50;56.55;;;40.40;;
38379;SDS011;38377;47.418;18.882;2023-10-19T02:44:20;63.95;;;42.70;;
38379;SDS011;38377;47.418;18.882;2023-10-19T02:46:51;58.67;;;42.03;;
38379;SDS011;38377;47.418;18.882;2023-10-19T02:49:19;66.72;;;43.05;;
38379;SDS011;38377;47.418;18.882;2023-10-19T02:51:46;64.70;;;43.22;;
38379;SDS011;38377;47.418;18.882;2023-10-19T02:54:13;63.10;;;42.63;;
38379;SDS011;38377;47.418;18.882;2023-10-19T02:56:48;65.97;;;43.42;;
38379;SDS011;38377;47.418;18.882;2023-10-19T02:59:21;69.88;;;45.53;;
38379;SDS011;38377;47.418;18.882;2023-10-19T03:01:58;65.63;;;45.40;;
38379;SDS011;38377;47.418;18.882;2023-10-19T03:04:32;65.63;;;44.80;;
38379;SDS011;38377;47.418;18.882;2023-10-19T03:07:00;75.35;;;45.10;;
38379;SDS011;38377;47.418;18.882;2023-10-19T03:09:28;69.50;;;45.05;;
38379;SDS011;38377;47.418;18.882;2023-10-19T03:11:55;74.72;;;46.53;;
38379;SDS011;38377;47.418;18.882;2023-10-19T03:14:28;68.78;;;45.53;;
38379;SDS011;38377;47.418;18.882;2023-10-19T03:16:53;69.53;;;46.58;;
38379;SDS011;38377;47.418;18.882;2023-10-19T03:19:23;67.95;;;45.50;;
38379;SDS011;38377;47.418;18.882;2023-10-19T03:21:52;66.28;;;44.60;;
38379;SDS011;38377;47.418;18.882;2023-10-19T03:24:20;76.30;;;45.75;;
38379;SDS011;38377;47.418;18.882;2023-10-19T03:27:04;74.03;;;46.28;;
38379;SDS011;38377;47.418;18.882;2023-10-19T03:29:48;73.40;;;46.40;;
38379;SDS011;38377;47.418;18.882;2023-10-19T03:32:25;68.38;;;47.10;;
38379;SDS011;38377;47.418;18.882;2023-10-19T03:35:00;71.53;;;46.33;;
38379;SDS011;38377;47.418;18.882;2023-10-19T03:37:28;76.63;;;47.35;;
38379;SDS011;38377;47.418;18.882;2023-10-19T03:39:55;80.15;;;48.40;;
38379;SDS011;38377;47.418;18.882;2023-10-19T03:42:21;77.60;;;49.00;;
38379;SDS011;38377;47.418;18.882;2023-10-19T03:44:50;79.30;;;49.38;;
38379;SDS011;38377;47.418;18.882;2023-10-19T03:47:22;73.53;;;48.78;;
38379;SDS011;38377;47.418;18.882;2023-10-19T03:49:51;77.30;;;48.88;;
38379;SDS011;38377;47.418;18.882;2023-10-19T03:52:18;78.22;;;48.85;;
38379;SDS011;38377;47.418;18.882;2023-10-19T03:54:43;75.55;;;49.47;;
38379;SDS011;38377;47.418;18.882;2023-10-19T03:57:10;71.60;;;47.83;;
38379;SDS011;38377;47.418;18.882;2023-10-19T03:59:37;73.78;;;47.33;;
38379;SDS011;38377;47.418;18.882;2023-10-19T04:02:04;69.72;;;48.63;;
38379;SDS011;38377;47.418;18.882;2023-10-19T04:04:35;69.40;;;47.38;;
38379;SDS011;38377;47.418;18.882;2023-10-19T04:07:01;71.35;;;46.35;;
38379;SDS011;38377;47.418;18.882;2023-10-19T04:09:36;69.10;;;46.78;;
38379;SDS011;38377;47.418;18.882;2023-10-19T04:12:21;69.28;;;46.10;;
38379;SDS011;38377;47.418;18.882;2023-10-19T04:14:50;67.70;;;46.85;;
38379;SDS011;38377;47.418;18.882;2023-10-19T04:17:16;71.53;;;46.40;;
38379;SDS011;38377;47.418;18.882;2023-10-19T04:19:46;68.47;;;46.08;;
38379;SDS011;38377;47.418;18.882;2023-10-19T04:22:14;64.05;;;45.05;;
38379;SDS011;38377;47.418;18.882;2023-10-19T04:24:47;66.80;;;46.40;;
38379;SDS011;38377;47.418;18.882;2023-10-19T04:27:17;69.85;;;45.90;;
38379;SDS011;38377;47.418;18.882;2023-10-19T04:29:46;70.80;;;44.90;;
38379;SDS011;38377;47.418;18.882;2023-10-19T04:32:14;74.25;;;46.63;;
38379;SDS011;38377;47.418;18.882;2023-10-19T04:34:44;73.93;;;45.53;;
38379;SDS011;38377;47.418;18.882;2023-10-19T04:37:10;72.93;;;47.15;;
38379;SDS011;38377;47.418;18.882;2023-10-19T04:39:37;71.13;;;46.67;;
38379;SDS011;38377;47.418;18.882;2023-10-19T04:42:03;72.53;;;44.50;;
38379;SDS011;38377;47.418;18.882;2023-10-19T04:44:29;73.68;;;45.75;;
38379;SDS011;38377;47.418;18.882;2023-10-19T04:46:56;65.45;;;45.00;;
38379;SDS011;38377;47.418;18.882;2023-10-19T04:49:22;73.68;;;45.33;;
38379;SDS011;38377;47.418;18.882;2023-10-19T04:51:48;74.25;;;45.63;;
38379;SDS011;38377;47.418;18.882;2023-10-19T04:54:13;71.25;;;44.97;;
38379;SDS011;38377;47.418;18.882;2023-10-19T04:56:39;71.15;;;43.00;;
38379;SDS011;38377;47.418;18.882;2023-10-19T04:59:05;74.68;;;43.75;;
38379;SDS011;38377;47.418;18.882;2023-10-19T05:01:31;65.28;;;42.47;;
38379;SDS011;38377;47.418;18.882;2023-10-19T05:04:00;72.05;;;42.13;;
38379;SDS011;38377;47.418;18.882;2023-10-19T05:06:29;69.03;;;41.65;;
38379;SDS011;38377;47.418;18.882;2023-10-19T05:08:54;68.35;;;41.03;;
38379;SDS011;38377;47.418;18.882;2023-10-19T05:11:22;63.15;;;39.42;;
38379;SDS011;38377;47.418;18.882;2023-10-19T05:13:48;65.25;;;39.90;;
38379;SDS011;38377;47.418;18.882;2023-10-19T05:16:13;63.80;;;40.90;;
38379;SDS011;38377;47.418;18.882;2023-10-19T05:18:40;59.40;;;38.47;;
38379;SDS011;38377;47.418;18.882;2023-10-19T05:21:06;67.60;;;40.67;;
38379;SDS011;38377;47.418;18.882;2023-10-19T05:23:32;63.13;;;39.17;;
38379;SDS011;38377;47.418;18.882;2023-10-19T05:26:01;63.63;;;39.83;;
38379;SDS011;38377;47.418;18.882;2023-10-19T05:28:31;63.22;;;38.33;;
38379;SDS011;38377;47.418;18.882;2023-10-19T05:30:57;60.33;;;38.78;;
38379;SDS011;38377;47.418;18.882;2023-10-19T05:33:24;58.17;;;37.90;;
38379;SDS011;38377;47.418;18.882;2023-10-19T05:35:52;64.00;;;38.33;;
38379;SDS011;38377;47.418;18.882;2023-10-19T05:38:18;56.20;;;36.75;;
38379;SDS011;38377;47.418;18.882;2023-10-19T05:40:45;54.50;;;37.58;;
38379;SDS011;38377;47.418;18.882;2023-10-19T05:43:11;57.80;;;36.28;;
38379;SDS011;38377;47.418;18.882;2023-10-19T05:45:37;62.08;;;37.00;;
38379;SDS011;38377;47.418;18.882;2023-10-19T05:48:04;58.30;;;37.50;;
38379;SDS011;38377;47.418;18.882;2023-10-19T05:50:32;54.92;;;36.22;;
38379;SDS011;38377;47.418;18.882;2023-10-19T05:52:59;59.80;;;37.20;;
38379;SDS011;38377;47.418;18.882;2023-10-19T05:55:25;55.60;;;35.00;;
38379;SDS011;38377;47.418;18.882;2023-10-19T05:57:50;56.10;;;34.92;;
38379;SDS011;38377;47.418;18.882;2023-10-19T06:00:16;54.72;;;35.63;;
38379;SDS011;38377;47.418;18.882;2023-10-19T06:02:45;58.75;;;36.40;;
38379;SDS011;38377;47.418;18.882;2023-10-19T06:07:43;58.10;;;36.03;;
38379;SDS011;38377;47.418;18.882;2023-10-19T06:10:14;56.38;;;36.75;;
38379;SDS011;38377;47.418;18.882;2023-10-19T06:12:44;61.58;;;38.00;;
38379;SDS011;38377;47.418;18.882;2023-10-19T06:15:11;55.88;;;36.05;;
38379;SDS011;38377;47.418;18.882;2023-10-19T06:17:41;55.53;;;35.47;;
38379;SDS011;38377;47.418;18.882;2023-10-19T06:20:08;57.05;;;36.10;;
38379;SDS011;38377;47.418;18.882;2023-10-19T06:22:48;55.25;;;35.25;;
38379;SDS011;38377;47.418;18.882;2023-10-19T06:25:21;52.00;;;33.95;;
38379;SDS011;38377;47.418;18.882;2023-10-19T06:27:48;50.90;;;34.22;;
38379;SDS011;38377;47.418;18.882;2023-10-19T06:30:15;50.33;;;31.65;;
38379;SDS011;38377;47.418;18.882;2023-10-19T06:35:19;47.45;;;31.63;;
38379;SDS011;38377;47.418;18.882;2023-10-19T06:37:46;47.58;;;31.02;;
38379;SDS011;38377;47.418;18.882;2023-10-19T06:40:12;46.55;;;32.72;;
38379;SDS011;38377;47.418;18.882;2023-10-19T06:42:42;47.65;;;31.80;;
38379;SDS011;38377;47.418;18.882;2023-10-19T06:45:10;46.42;;;30.98;;
38379;SDS011;38377;47.418;18.882;2023-10-19T06:47:39;49.33;;;32.08;;
38379;SDS011;38377;47.418;18.882;2023-10-19T06:50:06;45.33;;;30.90;;
38379;SDS011;38377;47.418;18.882;2023-10-19T06:52:35;42.72;;;29.58;;
38379;SDS011;38377;47.418;18.882;2023-10-19T06:55:04;48.15;;;30.85;;
38379;SDS011;38377;47.418;18.882;2023-10-19T06:57:32;43.20;;;30.23;;
38379;SDS011;38377;47.418;18.882;2023-10-19T06:59:58;47.05;;;30.70;;
38379;SDS011;38377;47.418;18.882;2023-10-19T07:02:24;46.17;;;30.88;;
38379;SDS011;38377;47.418;18.882;2023-10-19T07:04:51;44.08;;;29.90;;
38379;SDS011;38377;47.418;18.882;2023-10-19T07:07:17;40.88;;;28.42;;
38379;SDS011;38377;47.418;18.882;2023-10-19T07:09:43;45.08;;;30.10;;
38379;SDS011;38377;47.418;18.882;2023-10-19T07:12:09;46.58;;;30.52;;
38379;SDS011;38377;47.418;18.882;2023-10-19T07:14:35;44.70;;;29.42;;
38379;SDS011;38377;47.418;18.882;2023-10-19T07:17:01;49.35;;;29.50;;
38379;SDS011;38377;47.418;18.882;2023-10-19T07:19:26;44.88;;;30.42;;
38379;SDS011;38377;47.418;18.882;2023-10-19T07:21:54;42.95;;;29.42;;
38379;SDS011;38377;47.418;18.882;2023-10-19T07:24:23;44.10;;;29.40;;
38379;SDS011;38377;47.418;18.882;2023-10-19T07:26:50;45.80;;;30.45;;
38379;SDS011;38377;47.418;18.882;2023-10-19T07:29:21;46.55;;;31.65;;
38379;SDS011;38377;47.418;18.882;2023-10-19T07:31:47;60.90;;;36.25;;
38379;SDS011;38377;47.418;18.882;2023-10-19T07:34:13;46.72;;;31.67;;
38379;SDS011;38377;47.418;18.882;2023-10-19T07:36:41;103.50;;;55.33;;
38379;SDS011;38377;47.418;18.882;2023-10-19T07:39:07;63.63;;;40.42;;
38379;SDS011;38377;47.418;18.882;2023-10-19T07:41:40;45.03;;;30.65;;
38379;SDS011;38377;47.418;18.882;2023-10-19T07:44:06;41.92;;;28.67;;
38379;SDS011;38377;47.418;18.882;2023-10-19T07:46:31;41.47;;;29.77;;
38379;SDS011;38377;47.418;18.882;2023-10-19T07:48:57;42.00;;;28.58;;
38379;SDS011;38377;47.418;18.882;2023-10-19T07:51:25;41.45;;;29.10;;
38379;SDS011;38377;47.418;18.882;2023-10-19T07:53:52;41.13;;;27.17;;
38379;SDS011;38377;47.418;18.882;2023-10-19T07:56:18;42.78;;;27.80;;
38379;SDS011;38377;47.418;18.882;2023-10-19T07:58:47;37.85;;;27.40;;
38379;SDS011;38377;47.418;18.882;2023-10-19T08:01:16;34.45;;;25.85;;
38379;SDS011;38377;47.418;18.882;2023-10-19T08:03:44;34.47;;;24.90;;
38379;SDS011;38377;47.418;18.882;2023-10-19T08:06:10;36.42;;;24.90;;
38379;SDS011;38377;47.418;18.882;2023-10-19T08:08:36;36.83;;;25.77;;
38379;SDS011;38377;47.418;18.882;2023-10-19T08:11:01;33.40;;;24.48;;
38379;SDS011;38377;47.418;18.882;2023-10-19T08:13:27;36.38;;;24.20;;
38379;SDS011;38377;47.418;18.882;2023-10-19T08:15:53;34.55;;;25.20;;
38379;SDS011;38377;47.418;18.882;2023-10-19T08:18:20;30.80;;;24.02;;
38379;SDS011;38377;47.418;18.882;2023-10-19T08:20:46;34.05;;;23.13;;
38379;SDS011;38377;47.418;18.882;2023-10-19T08:23:14;37.55;;;23.50;;
38379;SDS011;38377;47.418;18.882;2023-10-19T08:25:50;34.60;;;23.63;;
38379;SDS011;38377;47.418;18.882;2023-10-19T08:28:18;30.38;;;22.63;;
38379;SDS011;38377;47.418;18.882;2023-10-19T08:30:45;30.58;;;22.52;;
38379;SDS011;38377;47.418;18.882;2023-10-19T08:33:22;32.00;;;22.02;;
38379;SDS011;38377;47.418;18.882;2023-10-19T08:35:51;32.30;;;22.55;;
38379;SDS011;38377;47.418;18.882;2023-10-19T08:38:19;32.72;;;23.00;;
38379;SDS011;38377;47.418;18.882;2023-10-19T08:40:47;28.45;;;20.65;;
38379;SDS011;38377;47.418;18.882;2023-10-19T08:43:13;27.77;;;20.90;;
38379;SDS011;38377;47.418;18.882;2023-10-19T08:45:43;27.65;;;20.33;;
38379;SDS011;38377;47.418;18.882;2023-10-19T08:48:09;30.65;;;22.70;;
38379;SDS011;38377;47.418;18.882;2023-10-19T08:50:36;26.98;;;20.52;;
38379;SDS011;38377;47.418;18.882;2023-10-19T08:53:14;25.95;;;19.27;;
38379;SDS011;38377;47.418;18.882;2023-10-19T08:55:44;28.23;;;20.42;;
38379;SDS011;38377;47.418;18.882;2023-10-19T08:58:10;26.10;;;19.45;;
38379;SDS011;38377;47.418;18.882;2023-10-19T09:00:43;28.48;;;18.55;;
38379;SDS011;38377;47.418;18.882;2023-10-19T09:03:14;26.95;;;18.83;;
38379;SDS011;38377;47.418;18.882;2023-10-19T09:05:41;27.77;;;17.17;;
38379;SDS011;38377;47.418;18.882;2023-10-19T09:08:07;24.77;;;18.70;;
38379;SDS011;38377;47.418;18.882;2023-10-19T09:10:35;21.20;;;17.13;;
38379;SDS011;38377;47.418;18.882;2023-10-19T09:13:05;23.23;;;16.58;;
38379;SDS011;38377;47.418;18.882;2023-10-19T09:15:35;23.83;;;17.67;;
38379;SDS011;38377;47.418;18.882;2023-10-19T09:18:18;24.85;;;18.02;;
38379;SDS011;38377;47.418;18.882;2023-10-19T09:20:46;22.80;;;16.52;;
38379;SDS011;38377;47.418;18.882;2023-10-19T09:23:30;22.20;;;17.33;;
38379;SDS011;38377;47.418;18.882;2023-10-19T09:26:23;19.85;;;16.60;;
38379;SDS011;38377;47.418;18.882;2023-10-19T09:28:50;23.63;;;17.92;;
38379;SDS011;38377;47.418;18.882;2023-10-19T09:31:25;25.27;;;18.27;;
38379;SDS011;38377;47.418;18.882;2023-10-19T09:34:00;25.02;;;18.63;;
38379;SDS011;38377;47.418;18.882;2023-10-19T09:36:31;23.88;;;18.13;;
38379;SDS011;38377;47.418;18.882;2023-10-19T09:38:57;27.10;;;18.80;;
38379;SDS011;38377;47.418;18.882;2023-10-19T09:41:24;23.15;;;17.73;;
38379;SDS011;38377;47.418;18.882;2023-10-19T09:44:03;25.65;;;18.08;;
38379;SDS011;38377;47.418;18.882;2023-10-19T09:46:37;24.63;;;18.20;;
38379;SDS011;38377;47.418;18.882;2023-10-19T09:49:05;26.55;;;19.52;;
38379;SDS011;38377;47.418;18.882;2023-10-19T09:51:31;22.27;;;17.48;;
38379;SDS011;38377;47.418;18.882;2023-10-19T09:54:02;21.23;;;17.52;;
38379;SDS011;38377;47.418;18.882;2023-10-19T09:56:42;23.45;;;17.33;;
38379;SDS011;38377;47.418;18.882;2023-10-19T09:59:35;24.17;;;17.30;;
38379;SDS011;38377;47.418;18.882;2023-10-19T10:04:34;23.20;;;17.63;;
38379;SDS011;38377;47.418;18.882;2023-10-19T10:07:04;23.60;;;18.50;;
38379;SDS011;38377;47.418;18.882;2023-10-19T10:09:32;24.08;;;17.95;;
38379;SDS011;38377;47.418;18.882;2023-10-19T10:12:15;23.80;;;18.83;;
38379;SDS011;38377;47.418;18.882;2023-10-19T10:14:52;27.83;;;18.08;;
38379;SDS011;38377;47.418;18.882;2023-10-19T10:17:26;21.73;;;17.35;;
38379;SDS011;38377;47.418;18.882;2023-10-19T10:19:54;21.25;;;16.88;;
38379;SDS011;38377;47.418;18.882;2023-10-19T10:22:22;23.05;;;16.42;;
38379;SDS011;38377;47.418;18.882;2023-10-19T10:24:48;22.23;;;17.02;;
38379;SDS011;38377;47.418;18.882;2023-10-19T10:27:21;25.10;;;17.88;;
38379;SDS011;38377;47.418;18.882;2023-10-19T10:29:57;22.42;;;17.85;;
38379;SDS011;38377;47.418;18.882;2023-10-19T10:32:47;23.52;;;16.75;;
38379;SDS011;38377;47.418;18.882;2023-10-19T10:38:07;26.63;;;18.58;;
38379;SDS011;38377;47.418;18.882;2023-10-19T10:40:43;26.75;;;17.92;;
38379;SDS011;38377;47.418;18.882;2023-10-19T10:43:13;22.85;;;17.88;;
38379;SDS011;38377;47.418;18.882;2023-10-19T10:45:40;24.95;;;19.23;;
38379;SDS011;38377;47.418;18.882;2023-10-19T10:48:16;22.10;;;17.77;;
38379;SDS011;38377;47.418;18.882;2023-10-19T10:50:46;23.63;;;17.75;;
38379;SDS011;38377;47.418;18.882;2023-10-19T10:53:12;24.65;;;19.25;;
38379;SDS011;38377;47.418;18.882;2023-10-19T10:55:40;24.50;;;18.42;;
38379;SDS011;38377;47.418;18.882;2023-10-19T10:58:06;23.27;;;17.02;;
38379;SDS011;38377;47.418;18.882;2023-10-19T11:00:31;22.88;;;16.50;;
38379;SDS011;38377;47.418;18.882;2023-10-19T11:03:00;20.92;;;16.55;;
38379;SDS011;38377;47.418;18.882;2023-10-19T11:05:26;23.02;;;17.58;;
38379;SDS011;38377;47.418;18.882;2023-10-19T11:10:45;26.60;;;17.35;;
38379;SDS011;38377;47.418;18.882;2023-10-19T11:13:12;21.10;;;16.13;;
38379;SDS011;38377;47.418;18.882;2023-10-19T11:15:48;19.02;;;15.60;;
38379;SDS011;38377;47.418;18.882;2023-10-19T11:18:38;18.63;;;15.45;;
38379;SDS011;38377;47.418;18.882;2023-10-19T11:21:12;21.38;;;16.90;;
38379;SDS011;38377;47.418;18.882;2023-10-19T11:23:48;20.10;;;14.25;;
38379;SDS011;38377;47.418;18.882;2023-10-19T11:26:18;20.08;;;14.73;;
38379;SDS011;38377;47.418;18.882;2023-10-19T11:28:46;22.25;;;15.13;;
38379;SDS011;38377;47.418;18.882;2023-10-19T11:31:22;19.35;;;15.40;;
38379;SDS011;38377;47.418;18.882;2023-10-19T11:33:49;20.33;;;15.50;;
38379;SDS011;38377;47.418;18.882;2023-10-19T11:36:18;22.50;;;16.50;;
38379;SDS011;38377;47.418;18.882;2023-10-19T11:38:46;21.33;;;17.33;;
38379;SDS011;38377;47.418;18.882;2023-10-19T11:41:16;22.33;;;18.45;;
38379;SDS011;38377;47.418;18.882;2023-10-19T11:43:43;21.70;;;17.13;;
38379;SDS011;38377;47.418;18.882;2023-10-19T11:46:10;22.48;;;18.02;;
38379;SDS011;38377;47.418;18.882;2023-10-19T11:48:43;21.70;;;17.30;;
38379;SDS011;38377;47.418;18.882;2023-10-19T11:51:09;24.42;;;17.83;;
38379;SDS011;38377;47.418;18.882;2023-10-19T11:53:40;24.00;;;17.35;;
38379;SDS011;38377;47.418;18.882;2023-10-19T11:56:08;21.77;;;15.68;;
38379;SDS011;38377;47.418;18.882;2023-10-19T11:58:35;21.08;;;16.25;;
38379;SDS011;38377;47.418;18.882;2023-10-19T12:01:02;25.85;;;17.73;;
38379;SDS011;38377;47.418;18.882;2023-10-19T12:03:38;21.83;;;17.00;;
38379;SDS011;38377;47.418;18.882;2023-10-19T12:06:06;22.15;;;16.92;;
38379;SDS011;38377;47.418;18.882;2023-10-19T12:08:32;21.20;;;16.08;;
38379;SDS011;38377;47.418;18.882;2023-10-19T12:10:59;21.25;;;16.67;;
38379;SDS011;38377;47.418;18.882;2023-10-19T12:13:27;21.30;;;16.17;;
38379;SDS011;38377;47.418;18.882;2023-10-19T12:15:53;24.65;;;15.93;;
38379;SDS011;38377;47.418;18.882;2023-10-19T12:18:20;20.00;;;16.35;;
38379;SDS011;38377;47.418;18.882;2023-10-19T12:20:46;20.45;;;15.57;;
38379;SDS011;38377;47.418;18.882;2023-10-19T12:23:13;21.45;;;16.48;;
38379;SDS011;38377;47.418;18.882;2023-10-19T12:25:39;22.83;;;16.83;;
38379;SDS011;38377;47.418;18.882;2023-10-19T12:28:07;24.15;;;18.27;;
38379;SDS011;38377;47.418;18.882;2023-10-19T12:30:33;22.80;;;17.10;;
38379;SDS011;38377;47.418;18.882;2023-10-19T12:33:06;23.38;;;18.38;;
38379;SDS011;38377;47.418;18.882;2023-10-19T12:35:36;22.50;;;17.42;;
38379;SDS011;38377;47.418;18.882;2023-10-19T12:38:17;23.77;;;17.42;;
38379;SDS011;38377;47.418;18.882;2023-10-19T12:40:48;23.80;;;17.35;;
38379;SDS011;38377;47.418;18.882;2023-10-19T12:43:16;26.63;;;17.42;;
38379;SDS011;38377;47.418;18.882;2023-10-19T12:45:47;27.25;;;18.73;;
38379;SDS011;38377;47.418;18.882;2023-10-19T12:48:18;21.83;;;16.50;;
38379;SDS011;38377;47.418;18.882;2023-10-19T12:50:45;24.20;;;17.83;;
38379;SDS011;38377;47.418;18.882;2023-10-19T12:53:12;22.45;;;17.63;;
38379;SDS011;38377;47.418;18.882;2023-10-19T12:55:39;22.63;;;16.50;;
38379;SDS011;38377;47.418;18.882;2023-10-19T12:58:05;24.52;;;16.90;;
38379;SDS011;38377;47.418;18.882;2023-10-19T13:00:37;27.33;;;16.73;;
38379;SDS011;38377;47.418;18.882;2023-10-19T13:03:08;22.30;;;15.90;;
38379;SDS011;38377;47.418;18.882;2023-10-19T13:05:38;19.17;;;14.80;;
38379;SDS011;38377;47.418;18.882;2023-10-19T13:08:05;19.00;;;15.02;;
38379;SDS011;38377;47.418;18.882;2023-10-19T13:10:32;23.80;;;15.98;;
38379;SDS011;38377;47.418;18.882;2023-10-19T13:13:02;21.55;;;16.23;;
38379;SDS011;38377;47.418;18.882;2023-10-19T13:15:32;27.38;;;17.08;;
38379;SDS011;38377;47.418;18.882;2023-10-19T13:18:00;23.15;;;15.85;;
38379;SDS011;38377;47.418;18.882;2023-10-19T13:20:26;21.08;;;15.88;;
38379;SDS011;38377;47.418;18.882;2023-10-19T13:22:53;22.17;;;15.40;;
38379;SDS011;38377;47.418;18.882;2023-10-19T13:25:21;20.45;;;14.65;;
38379;SDS011;38377;47.418;18.882;2023-10-19T13:28:04;19.73;;;14.10;;
38379;SDS011;38377;47.418;18.882;2023-10-19T13:30:37;20.55;;;13.75;;
38379;SDS011;38377;47.418;18.882;2023-10-19T13:33:10;66.68;;;42.20;;
38379;SDS011;38377;47.418;18.882;2023-10-19T13:35:40;60.70;;;38.05;;
38379;SDS011;38377;47.418;18.882;2023-10-19T13:38:09;29.42;;;19.95;;
38379;SDS011;38377;47.418;18.882;2023-10-19T13:40:37;19.40;;;15.98;;
38379;SDS011;38377;47.418;18.882;2023-10-19T13:43:19;21.45;;;15.32;;
38379;SDS011;38377;47.418;18.882;2023-10-19T13:45:46;22.23;;;15.80;;
38379;SDS011;38377;47.418;18.882;2023-10-19T13:48:16;22.35;;;15.65;;
38379;SDS011;38377;47.418;18.882;2023-10-19T13:50:53;24.92;;;15.75;;
38379;SDS011;38377;47.418;18.882;2023-10-19T13:53:40;22.17;;;14.60;;
38379;SDS011;38377;47.418;18.882;2023-10-19T13:56:07;21.25;;;15.38;;
38379;SDS011;38377;47.418;18.882;2023-10-19T13:58:34;19.85;;;15.20;;
38379;SDS011;38377;47.418;18.882;2023-10-19T14:01:00;21.08;;;15.02;;
38379;SDS011;38377;47.418;18.882;2023-10-19T14:03:26;20.23;;;13.98;;
38379;SDS011;38377;47.418;18.882;2023-10-19T14:05:52;19.63;;;15.27;;
38379;SDS011;38377;47.418;18.882;2023-10-19T14:08:21;21.30;;;16.38;;
38379;SDS011;38377;47.418;18.882;2023-10-19T14:10:47;21.50;;;15.93;;
38379;SDS011;38377;47.418;18.882;2023-10-19T14:13:13;21.27;;;15.45;;
38379;SDS011;38377;47.418;18.882;2023-10-19T14:15:42;22.50;;;15.68;;
38379;SDS011;38377;47.418;18.882;2023-10-19T14:18:08;20.88;;;15.63;;
38379;SDS011;38377;47.418;18.882;2023-10-19T14:20:35;20.58;;;15.35;;
38379;SDS011;38377;47.418;18.882;2023-10-19T14:23:03;20.63;;;16.17;;
38379;SDS011;38377;47.418;18.882;2023-10-19T14:25:30;23.10;;;16.67;;
38379;SDS011;38377;47.418;18.882;2023-10-19T14:27:56;24.88;;;16.42;;
38379;SDS011;38377;47.418;18.882;2023-10-19T14:30:25;23.55;;;16.25;;
38379;SDS011;38377;47.418;18.882;2023-10-19T14:32:54;25.83;;;18.73;;
38379;SDS011;38377;47.418;18.882;2023-10-19T14:35:20;25.67;;;18.52;;